RYR64YL EDDK-LOWW
Flight info
| Callsign | RYR64YL |
|---|---|
| Flight time | 1h 7m |
| Altitude | 37000 |
| Route | KUMIK7K KUMIK L603 TESGA DCT ESATI DCT BARSU DCT EKSOS DCT LULAR DCT RUDAP DCT BUDEX BUDEX2W |
| Aircraft | A320/M-SDE3FGHIRWY/LB1 |
Departure
| Time | 2026-04-26 13:46 |
|---|---|
| Airport | Cologne Bonn Airport (EDDK) |
Arrival
| Time | 2026-04-26 14:54 |
|---|---|
| Airport | Vienna International Airport (LOWW) |
| Time | Latitude | Longitude | Altitude | Speed | Heading |
|---|---|---|---|---|---|
| 2026-04-26 12:49 | 50.87803 | 7.12419 | 234 ft | 0 kts | 288° |
| 2026-04-26 13:31 | 50.87796 | 7.12454 | 233 ft | 4 kts | 288° |
| 2026-04-26 13:32 | 50.87788 | 7.12491 | 234 ft | 2 kts | 288° |
| 2026-04-26 13:32 | 50.87778 | 7.12525 | 232 ft | 4 kts | 317° |
| 2026-04-26 13:32 | 50.87756 | 7.12542 | 232 ft | 4 kts | 7° |
| 2026-04-26 13:32 | 50.87732 | 7.12532 | 233 ft | 4 kts | 18° |
| 2026-04-26 13:33 | 50.87712 | 7.12522 | 232 ft | 0 kts | 18° |
| 2026-04-26 13:37 | 50.87719 | 7.12525 | 233 ft | 5 kts | 18° |
| 2026-04-26 13:37 | 50.87760 | 7.12586 | 232 ft | 9 kts | 67° |
| 2026-04-26 13:37 | 50.87768 | 7.12679 | 232 ft | 10 kts | 101° |
| 2026-04-26 13:37 | 50.87717 | 7.12774 | 232 ft | 11 kts | 137° |
| 2026-04-26 13:38 | 50.87663 | 7.12854 | 232 ft | 10 kts | 137° |
| 2026-04-26 13:38 | 50.87615 | 7.12923 | 232 ft | 9 kts | 137° |
| 2026-04-26 13:38 | 50.87573 | 7.12984 | 232 ft | 8 kts | 138° |
| 2026-04-26 13:38 | 50.87527 | 7.13050 | 232 ft | 12 kts | 137° |
| 2026-04-26 13:39 | 50.87451 | 7.13160 | 232 ft | 16 kts | 137° |
| 2026-04-26 13:39 | 50.87359 | 7.13292 | 232 ft | 19 kts | 137° |
| 2026-04-26 13:39 | 50.87261 | 7.13435 | 234 ft | 18 kts | 137° |
| 2026-04-26 13:39 | 50.87175 | 7.13559 | 237 ft | 15 kts | 137° |
| 2026-04-26 13:40 | 50.87106 | 7.13659 | 240 ft | 14 kts | 137° |
| 2026-04-26 13:40 | 50.87032 | 7.13767 | 242 ft | 13 kts | 137° |
| 2026-04-26 13:40 | 50.86956 | 7.13876 | 247 ft | 18 kts | 137° |
| 2026-04-26 13:40 | 50.86859 | 7.14017 | 255 ft | 19 kts | 137° |
| 2026-04-26 13:41 | 50.86752 | 7.14131 | 255 ft | 18 kts | 167° |
| 2026-04-26 13:41 | 50.86670 | 7.14229 | 260 ft | 12 kts | 136° |
| 2026-04-26 13:41 | 50.86603 | 7.14327 | 261 ft | 15 kts | 136° |
| 2026-04-26 13:41 | 50.86511 | 7.14460 | 265 ft | 19 kts | 137° |
| 2026-04-26 13:42 | 50.86418 | 7.14595 | 271 ft | 20 kts | 137° |
| 2026-04-26 13:42 | 50.86300 | 7.14767 | 278 ft | 23 kts | 137° |
| 2026-04-26 13:42 | 50.86183 | 7.14936 | 284 ft | 22 kts | 138° |
| 2026-04-26 13:42 | 50.86072 | 7.15097 | 288 ft | 22 kts | 137° |
| 2026-04-26 13:43 | 50.85959 | 7.15260 | 294 ft | 22 kts | 137° |
| 2026-04-26 13:43 | 50.85847 | 7.15422 | 298 ft | 22 kts | 138° |
| 2026-04-26 13:43 | 50.85736 | 7.15583 | 300 ft | 21 kts | 137° |
| 2026-04-26 13:43 | 50.85627 | 7.15741 | 303 ft | 21 kts | 137° |
| 2026-04-26 13:44 | 50.85521 | 7.15895 | 307 ft | 20 kts | 137° |
| 2026-04-26 13:44 | 50.85415 | 7.16048 | 308 ft | 21 kts | 137° |
| 2026-04-26 13:44 | 50.85339 | 7.16230 | 309 ft | 16 kts | 96° |
| 2026-04-26 13:44 | 50.85356 | 7.16410 | 308 ft | 17 kts | 58° |
| 2026-04-26 13:45 | 50.85423 | 7.16503 | 308 ft | 13 kts | 36° |
| 2026-04-26 13:45 | 50.85512 | 7.16518 | 308 ft | 14 kts | 354° |
| 2026-04-26 13:45 | 50.85600 | 7.16456 | 309 ft | 12 kts | 320° |
| 2026-04-26 13:45 | 50.85666 | 7.16358 | 308 ft | 15 kts | 318° |
| 2026-04-26 13:46 | 50.85868 | 7.16066 | 303 ft | 76 kts | 317° |
| 2026-04-26 13:46 | 50.86428 | 7.15256 | 283 ft | 139 kts | 317° |
| 2026-04-26 13:46 | 50.87240 | 7.14078 | 478 ft | 170 kts | 319° |
| 2026-04-26 13:46 | 50.88154 | 7.12751 | 1105 ft | 180 kts | 319° |
| 2026-04-26 13:47 | 50.89073 | 7.11438 | 1957 ft | 180 kts | 323° |
| 2026-04-26 13:47 | 50.90292 | 7.10877 | 2334 ft | 200 kts | 8° |
| 2026-04-26 13:47 | 50.91631 | 7.11797 | 2845 ft | 215 kts | 30° |
| 2026-04-26 13:47 | 50.92896 | 7.13056 | 3749 ft | 216 kts | 36° |
| 2026-04-26 13:48 | 50.93963 | 7.14777 | 4505 ft | 228 kts | 57° |
| 2026-04-26 13:48 | 50.94651 | 7.17143 | 5115 ft | 244 kts | 66° |
| 2026-04-26 13:48 | 50.95342 | 7.19647 | 5739 ft | 260 kts | 64° |
| 2026-04-26 13:48 | 50.96126 | 7.22312 | 6484 ft | 271 kts | 62° |
| 2026-04-26 13:49 | 50.96970 | 7.25027 | 7401 ft | 277 kts | 61° |
| 2026-04-26 13:49 | 50.97848 | 7.27773 | 8349 ft | 281 kts | 60° |
| 2026-04-26 13:49 | 50.98741 | 7.30555 | 9279 ft | 285 kts | 60° |
| 2026-04-26 13:49 | 50.99646 | 7.33386 | 10169 ft | 290 kts | 60° |
| 2026-04-26 13:50 | 51.00560 | 7.36311 | 10719 ft | 307 kts | 64° |
| 2026-04-26 13:50 | 51.01238 | 7.39683 | 11023 ft | 334 kts | 77° |
| 2026-04-26 13:50 | 51.01434 | 7.43440 | 11559 ft | 348 kts | 90° |
| 2026-04-26 13:50 | 51.01093 | 7.47237 | 12285 ft | 356 kts | 103° |
| 2026-04-26 13:51 | 51.00362 | 7.51022 | 13051 ft | 361 kts | 106° |
| 2026-04-26 13:51 | 50.99608 | 7.54850 | 13819 ft | 365 kts | 106° |
| 2026-04-26 13:51 | 50.98851 | 7.58719 | 14523 ft | 369 kts | 106° |
| 2026-04-26 13:51 | 50.98086 | 7.62631 | 15221 ft | 373 kts | 107° |
| 2026-04-26 13:52 | 50.97313 | 7.66575 | 15885 ft | 376 kts | 107° |
| 2026-04-26 13:52 | 50.96527 | 7.70560 | 16572 ft | 380 kts | 107° |
| 2026-04-26 13:52 | 50.95733 | 7.74571 | 17242 ft | 384 kts | 107° |
| 2026-04-26 13:52 | 50.94938 | 7.78574 | 17898 ft | 387 kts | 108° |
| 2026-04-26 13:53 | 50.93923 | 7.82539 | 18553 ft | 390 kts | 118° |
| 2026-04-26 13:53 | 50.92502 | 7.86213 | 19128 ft | 393 kts | 124° |
| 2026-04-26 13:53 | 50.90979 | 7.89849 | 19719 ft | 397 kts | 124° |
| 2026-04-26 13:53 | 50.89450 | 7.93503 | 20302 ft | 400 kts | 124° |
| 2026-04-26 13:54 | 50.87909 | 7.97185 | 20891 ft | 403 kts | 124° |
| 2026-04-26 13:54 | 50.86354 | 8.00894 | 21469 ft | 406 kts | 124° |
| 2026-04-26 13:54 | 50.84784 | 8.04630 | 22038 ft | 409 kts | 124° |
| 2026-04-26 13:55 | 50.81632 | 8.12133 | 23168 ft | 416 kts | 124° |
| 2026-04-26 13:55 | 50.80547 | 8.14713 | 23541 ft | 418 kts | 124° |
| 2026-04-26 13:55 | 50.76772 | 8.23669 | 24597 ft | 424 kts | 124° |
| 2026-04-26 13:56 | 50.75139 | 8.27527 | 25047 ft | 427 kts | 124° |
| 2026-04-26 13:56 | 50.73473 | 8.31458 | 25461 ft | 429 kts | 124° |
| 2026-04-26 13:56 | 50.71805 | 8.35369 | 25865 ft | 432 kts | 126° |
| 2026-04-26 13:56 | 50.69904 | 8.38974 | 26268 ft | 433 kts | 136° |
| 2026-04-26 13:57 | 50.67611 | 8.42104 | 26658 ft | 434 kts | 145° |
| 2026-04-26 13:57 | 50.65055 | 8.44583 | 27055 ft | 435 kts | 153° |
| 2026-04-26 13:57 | 50.62381 | 8.46815 | 27448 ft | 437 kts | 153° |
| 2026-04-26 13:57 | 50.59685 | 8.49083 | 27840 ft | 439 kts | 153° |
| 2026-04-26 13:58 | 50.56982 | 8.51370 | 28225 ft | 441 kts | 153° |
| 2026-04-26 13:58 | 50.54276 | 8.53662 | 28620 ft | 443 kts | 153° |
| 2026-04-26 13:58 | 50.51549 | 8.55966 | 28988 ft | 445 kts | 153° |
| 2026-04-26 13:58 | 50.48816 | 8.58268 | 29345 ft | 447 kts | 153° |
| 2026-04-26 13:59 | 50.46115 | 8.60580 | 29685 ft | 449 kts | 150° |
| 2026-04-26 13:59 | 50.43530 | 8.63444 | 30026 ft | 453 kts | 141° |
| 2026-04-26 13:59 | 50.41203 | 8.66830 | 30337 ft | 456 kts | 137° |
| 2026-04-26 14:00 | 50.34361 | 8.77186 | 31113 ft | 461 kts | 137° |
| 2026-04-26 14:00 | 50.32037 | 8.80680 | 31340 ft | 463 kts | 137° |
| 2026-04-26 14:00 | 50.30495 | 8.82990 | 31481 ft | 465 kts | 137° |
| 2026-04-26 14:01 | 50.27371 | 8.87656 | 31889 ft | 465 kts | 137° |
| 2026-04-26 14:01 | 50.25037 | 8.91139 | 32205 ft | 464 kts | 138° |
| 2026-04-26 14:01 | 50.22727 | 8.94586 | 32502 ft | 465 kts | 138° |
| 2026-04-26 14:01 | 50.20356 | 8.98121 | 32820 ft | 465 kts | 138° |
| 2026-04-26 14:02 | 50.18081 | 9.01512 | 33121 ft | 465 kts | 138° |
| 2026-04-26 14:02 | 50.15714 | 9.05041 | 33428 ft | 465 kts | 138° |
| 2026-04-26 14:02 | 50.13375 | 9.08525 | 33730 ft | 465 kts | 138° |
| 2026-04-26 14:02 | 50.11043 | 9.11996 | 34023 ft | 465 kts | 137° |
| 2026-04-26 14:03 | 50.08900 | 9.15783 | 34325 ft | 467 kts | 128° |
| 2026-04-26 14:03 | 50.07168 | 9.20059 | 34583 ft | 469 kts | 118° |
| 2026-04-26 14:03 | 50.05891 | 9.24724 | 34846 ft | 470 kts | 108° |
| 2026-04-26 14:03 | 50.05105 | 9.29644 | 35092 ft | 470 kts | 99° |
| 2026-04-26 14:04 | 50.04559 | 9.34647 | 35345 ft | 470 kts | 99° |
| 2026-04-26 14:04 | 50.04003 | 9.39598 | 35604 ft | 469 kts | 100° |
| 2026-04-26 14:04 | 50.03427 | 9.44592 | 35848 ft | 469 kts | 100° |
| 2026-04-26 14:04 | 50.02845 | 9.49561 | 36088 ft | 468 kts | 100° |
| 2026-04-26 14:05 | 50.02261 | 9.54545 | 36323 ft | 468 kts | 100° |
| 2026-04-26 14:05 | 50.01679 | 9.59511 | 36552 ft | 468 kts | 100° |
| 2026-04-26 14:05 | 50.01102 | 9.64441 | 36774 ft | 468 kts | 100° |
| 2026-04-26 14:05 | 50.00519 | 9.69444 | 37002 ft | 468 kts | 100° |
| 2026-04-26 14:06 | 49.99944 | 9.74382 | 37203 ft | 468 kts | 100° |
| 2026-04-26 14:06 | 49.98775 | 9.84322 | 37270 ft | 466 kts | 101° |
| 2026-04-26 14:07 | 49.97606 | 9.94136 | 37274 ft | 466 kts | 101° |
| 2026-04-26 14:07 | 49.96414 | 10.04108 | 37272 ft | 466 kts | 101° |
| 2026-04-26 14:08 | 49.95227 | 10.13996 | 37278 ft | 466 kts | 101° |
| 2026-04-26 14:08 | 49.94033 | 10.23821 | 37278 ft | 466 kts | 101° |
| 2026-04-26 14:09 | 49.92819 | 10.33691 | 37278 ft | 466 kts | 101° |
| 2026-04-26 14:09 | 49.91049 | 10.43325 | 37281 ft | 465 kts | 113° |
| 2026-04-26 14:10 | 49.88626 | 10.52658 | 37282 ft | 465 kts | 113° |
| 2026-04-26 14:10 | 49.86219 | 10.61969 | 37278 ft | 466 kts | 112° |
| 2026-04-26 14:11 | 49.82607 | 10.75868 | 37276 ft | 466 kts | 113° |
| 2026-04-26 14:11 | 49.80171 | 10.85176 | 37275 ft | 467 kts | 113° |
| 2026-04-26 14:12 | 49.77720 | 10.94493 | 37274 ft | 467 kts | 113° |
| 2026-04-26 14:12 | 49.75263 | 11.03784 | 37270 ft | 467 kts | 113° |
| 2026-04-26 14:13 | 49.71593 | 11.17662 | 37268 ft | 467 kts | 113° |
| 2026-04-26 14:14 | 49.69119 | 11.26965 | 37267 ft | 468 kts | 114° |
| 2026-04-26 14:14 | 49.66634 | 11.36232 | 37268 ft | 468 kts | 114° |
| 2026-04-26 14:15 | 49.64253 | 11.45514 | 37269 ft | 468 kts | 110° |
| 2026-04-26 14:15 | 49.62274 | 11.55085 | 37261 ft | 469 kts | 107° |
| 2026-04-26 14:16 | 49.60425 | 11.64741 | 37258 ft | 469 kts | 108° |
| 2026-04-26 14:16 | 49.58482 | 11.74345 | 37252 ft | 469 kts | 109° |
| 2026-04-26 14:17 | 49.56445 | 11.83918 | 37254 ft | 470 kts | 109° |
| 2026-04-26 14:17 | 49.54414 | 11.93406 | 37250 ft | 470 kts | 109° |
| 2026-04-26 14:18 | 49.52383 | 12.02972 | 37254 ft | 470 kts | 109° |
| 2026-04-26 14:18 | 49.50343 | 12.12516 | 37256 ft | 470 kts | 109° |
| 2026-04-26 14:19 | 49.48296 | 12.22061 | 37262 ft | 470 kts | 109° |
| 2026-04-26 14:19 | 49.46263 | 12.31527 | 37259 ft | 470 kts | 109° |
| 2026-04-26 14:20 | 49.44202 | 12.41067 | 37267 ft | 470 kts | 109° |
| 2026-04-26 14:20 | 49.42133 | 12.50592 | 37260 ft | 470 kts | 109° |
| 2026-04-26 14:21 | 49.40057 | 12.60091 | 37260 ft | 470 kts | 110° |
| 2026-04-26 14:21 | 49.37987 | 12.69530 | 37262 ft | 470 kts | 110° |
| 2026-04-26 14:22 | 49.35882 | 12.79020 | 37260 ft | 469 kts | 110° |
| 2026-04-26 14:22 | 49.33621 | 12.88409 | 37260 ft | 469 kts | 112° |
| 2026-04-26 14:23 | 49.31273 | 12.97743 | 37256 ft | 469 kts | 112° |
| 2026-04-26 14:23 | 49.28939 | 13.07078 | 37259 ft | 469 kts | 112° |
| 2026-04-26 14:24 | 49.26655 | 13.16356 | 37258 ft | 469 kts | 112° |
| 2026-04-26 14:24 | 49.24367 | 13.25622 | 37252 ft | 469 kts | 112° |
| 2026-04-26 14:25 | 49.21948 | 13.34986 | 37252 ft | 469 kts | 114° |
| 2026-04-26 14:25 | 49.19444 | 13.44158 | 37252 ft | 469 kts | 114° |
| 2026-04-26 14:26 | 49.16925 | 13.53330 | 37248 ft | 469 kts | 114° |
| 2026-04-26 14:26 | 49.14421 | 13.62532 | 37249 ft | 470 kts | 114° |
| 2026-04-26 14:27 | 49.11922 | 13.71736 | 37257 ft | 469 kts | 114° |
| 2026-04-26 14:27 | 49.09409 | 13.80957 | 37257 ft | 469 kts | 114° |
| 2026-04-26 14:28 | 49.06906 | 13.90070 | 37110 ft | 470 kts | 114° |
| 2026-04-26 14:28 | 49.05642 | 13.94652 | 36843 ft | 469 kts | 114° |
| 2026-04-26 14:28 | 49.04377 | 13.99243 | 36582 ft | 470 kts | 114° |
| 2026-04-26 14:28 | 49.03106 | 14.03848 | 36321 ft | 470 kts | 114° |
| 2026-04-26 14:29 | 49.01855 | 14.08377 | 36069 ft | 471 kts | 114° |
| 2026-04-26 14:29 | 49.00567 | 14.13024 | 35785 ft | 472 kts | 114° |
| 2026-04-26 14:29 | 48.99297 | 14.17595 | 34842 ft | 478 kts | 114° |
| 2026-04-26 14:29 | 48.97975 | 14.22348 | 33908 ft | 481 kts | 114° |
| 2026-04-26 14:30 | 48.96681 | 14.26984 | 32912 ft | 485 kts | 114° |
| 2026-04-26 14:30 | 48.95332 | 14.31631 | 32368 ft | 477 kts | 118° |
| 2026-04-26 14:30 | 48.93638 | 14.35955 | 31739 ft | 472 kts | 127° |
| 2026-04-26 14:30 | 48.91670 | 14.39894 | 31162 ft | 467 kts | 129° |
| 2026-04-26 14:31 | 48.89690 | 14.43801 | 30584 ft | 464 kts | 129° |
| 2026-04-26 14:31 | 48.87730 | 14.47678 | 29942 ft | 461 kts | 128° |
| 2026-04-26 14:31 | 48.85789 | 14.51523 | 29382 ft | 456 kts | 128° |
| 2026-04-26 14:31 | 48.83874 | 14.55315 | 28812 ft | 451 kts | 128° |
| 2026-04-26 14:32 | 48.81996 | 14.59023 | 28280 ft | 447 kts | 128° |
| 2026-04-26 14:32 | 48.80110 | 14.62737 | 27725 ft | 442 kts | 128° |
| 2026-04-26 14:32 | 48.78244 | 14.66411 | 27190 ft | 438 kts | 128° |
| 2026-04-26 14:32 | 48.76389 | 14.70057 | 26669 ft | 435 kts | 128° |
| 2026-04-26 14:33 | 48.74547 | 14.73669 | 26156 ft | 431 kts | 128° |
| 2026-04-26 14:33 | 48.72717 | 14.77249 | 25663 ft | 428 kts | 128° |
| 2026-04-26 14:33 | 48.70923 | 14.80748 | 25179 ft | 425 kts | 128° |
| 2026-04-26 14:33 | 48.69098 | 14.84304 | 24698 ft | 421 kts | 128° |
| 2026-04-26 14:34 | 48.67325 | 14.87755 | 24223 ft | 419 kts | 128° |
| 2026-04-26 14:34 | 48.65551 | 14.91203 | 23752 ft | 417 kts | 128° |
| 2026-04-26 14:34 | 48.63768 | 14.94661 | 23235 ft | 413 kts | 128° |
| 2026-04-26 14:34 | 48.62013 | 14.98073 | 22802 ft | 408 kts | 127° |
| 2026-04-26 14:35 | 48.60374 | 15.01483 | 22684 ft | 395 kts | 124° |
| 2026-04-26 14:35 | 48.58871 | 15.04861 | 22598 ft | 381 kts | 123° |
| 2026-04-26 14:35 | 48.57437 | 15.08227 | 22499 ft | 382 kts | 122° |
| 2026-04-26 14:35 | 48.56013 | 15.11612 | 22404 ft | 382 kts | 122° |
| 2026-04-26 14:36 | 48.54583 | 15.14988 | 22325 ft | 382 kts | 122° |
| 2026-04-26 14:36 | 48.53156 | 15.18302 | 22231 ft | 381 kts | 123° |
| 2026-04-26 14:36 | 48.51695 | 15.21633 | 22141 ft | 381 kts | 123° |
| 2026-04-26 14:36 | 48.50224 | 15.24956 | 22053 ft | 380 kts | 123° |
| 2026-04-26 14:37 | 48.48750 | 15.28268 | 21966 ft | 380 kts | 123° |
| 2026-04-26 14:37 | 48.47283 | 15.31567 | 21880 ft | 380 kts | 123° |
| 2026-04-26 14:37 | 48.45813 | 15.34875 | 21787 ft | 379 kts | 123° |
| 2026-04-26 14:37 | 48.44346 | 15.38180 | 21697 ft | 379 kts | 123° |
| 2026-04-26 14:38 | 48.42884 | 15.41475 | 21614 ft | 378 kts | 123° |
| 2026-04-26 14:38 | 48.41424 | 15.44764 | 21522 ft | 378 kts | 123° |
| 2026-04-26 14:38 | 48.39988 | 15.47996 | 21446 ft | 378 kts | 123° |
| 2026-04-26 14:38 | 48.38993 | 15.50232 | 21383 ft | 377 kts | 123° |
| 2026-04-26 14:39 | 48.37058 | 15.54563 | 21267 ft | 377 kts | 123° |
| 2026-04-26 14:39 | 48.35593 | 15.57833 | 21184 ft | 376 kts | 123° |
| 2026-04-26 14:39 | 48.34132 | 15.61093 | 21051 ft | 377 kts | 123° |
| 2026-04-26 14:39 | 48.32672 | 15.64357 | 20592 ft | 377 kts | 123° |
| 2026-04-26 14:40 | 48.31228 | 15.67582 | 20088 ft | 378 kts | 122° |
| 2026-04-26 14:40 | 48.29737 | 15.70909 | 19564 ft | 379 kts | 122° |
| 2026-04-26 14:40 | 48.28261 | 15.74199 | 19042 ft | 380 kts | 122° |
| 2026-04-26 14:40 | 48.26800 | 15.77446 | 18530 ft | 381 kts | 122° |
| 2026-04-26 14:41 | 48.25320 | 15.80725 | 17960 ft | 382 kts | 122° |
| 2026-04-26 14:41 | 48.23818 | 15.84051 | 17433 ft | 382 kts | 122° |
| 2026-04-26 14:41 | 48.22332 | 15.87340 | 16925 ft | 381 kts | 122° |
| 2026-04-26 14:41 | 48.20844 | 15.90629 | 16410 ft | 381 kts | 123° |
| 2026-04-26 14:42 | 48.19353 | 15.93922 | 15895 ft | 381 kts | 123° |
| 2026-04-26 14:42 | 48.17862 | 15.97210 | 15383 ft | 382 kts | 123° |
| 2026-04-26 14:42 | 48.16408 | 16.00409 | 14883 ft | 382 kts | 123° |
| 2026-04-26 14:42 | 48.14891 | 16.03743 | 14355 ft | 383 kts | 123° |
| 2026-04-26 14:43 | 48.13393 | 16.07034 | 13806 ft | 383 kts | 123° |
| 2026-04-26 14:43 | 48.11895 | 16.10332 | 13254 ft | 382 kts | 123° |
| 2026-04-26 14:43 | 48.10399 | 16.13620 | 12723 ft | 380 kts | 123° |
| 2026-04-26 14:43 | 48.08913 | 16.16875 | 12169 ft | 377 kts | 123° |
| 2026-04-26 14:44 | 48.07464 | 16.20043 | 11640 ft | 361 kts | 123° |
| 2026-04-26 14:44 | 48.06069 | 16.23086 | 11130 ft | 347 kts | 123° |
| 2026-04-26 14:44 | 48.04737 | 16.25990 | 10643 ft | 343 kts | 123° |
| 2026-04-26 14:44 | 48.03397 | 16.28916 | 10411 ft | 335 kts | 123° |
| 2026-04-26 14:45 | 48.02106 | 16.31727 | 10041 ft | 322 kts | 123° |
| 2026-04-26 14:45 | 48.01276 | 16.33528 | 9685 ft | 317 kts | 123° |
| 2026-04-26 14:45 | 47.99618 | 16.37122 | 9011 ft | 313 kts | 123° |
| 2026-04-26 14:45 | 47.98382 | 16.39806 | 8554 ft | 313 kts | 124° |
| 2026-04-26 14:46 | 47.97148 | 16.42488 | 8096 ft | 313 kts | 124° |
| 2026-04-26 14:46 | 47.95914 | 16.45166 | 7629 ft | 314 kts | 124° |
| 2026-04-26 14:46 | 47.94680 | 16.47843 | 7195 ft | 313 kts | 124° |
| 2026-04-26 14:46 | 47.93420 | 16.50440 | 6760 ft | 312 kts | 131° |
| 2026-04-26 14:47 | 47.91968 | 16.52775 | 6295 ft | 301 kts | 135° |
| 2026-04-26 14:47 | 47.90524 | 16.54961 | 5829 ft | 291 kts | 135° |
| 2026-04-26 14:47 | 47.89178 | 16.57134 | 5372 ft | 281 kts | 121° |
| 2026-04-26 14:47 | 47.88518 | 16.59742 | 4949 ft | 261 kts | 90° |
| 2026-04-26 14:48 | 47.88607 | 16.62345 | 4561 ft | 245 kts | 77° |
| 2026-04-26 14:48 | 47.89017 | 16.64716 | 4170 ft | 229 kts | 54° |
| 2026-04-26 14:48 | 47.90070 | 16.66214 | 3873 ft | 207 kts | 19° |
| 2026-04-26 14:48 | 47.91462 | 16.66452 | 3625 ft | 203 kts | 348° |
| 2026-04-26 14:49 | 47.92808 | 16.65913 | 3357 ft | 196 kts | 344° |
| 2026-04-26 14:49 | 47.94085 | 16.65362 | 3104 ft | 185 kts | 345° |
| 2026-04-26 14:49 | 47.95258 | 16.64864 | 3031 ft | 164 kts | 345° |
| 2026-04-26 14:49 | 47.96288 | 16.64430 | 2990 ft | 144 kts | 345° |
| 2026-04-26 14:50 | 47.97226 | 16.64036 | 2917 ft | 135 kts | 345° |
| 2026-04-26 14:50 | 47.98117 | 16.63661 | 2814 ft | 130 kts | 345° |
| 2026-04-26 14:50 | 47.98986 | 16.63296 | 2658 ft | 131 kts | 344° |
| 2026-04-26 14:50 | 47.99858 | 16.62930 | 2479 ft | 131 kts | 345° |
| 2026-04-26 14:51 | 48.00724 | 16.62566 | 2304 ft | 129 kts | 346° |
| 2026-04-26 14:51 | 48.01588 | 16.62202 | 2142 ft | 129 kts | 346° |
| 2026-04-26 14:51 | 48.02446 | 16.61841 | 1962 ft | 128 kts | 346° |
| 2026-04-26 14:51 | 48.03305 | 16.61479 | 1781 ft | 130 kts | 345° |
| 2026-04-26 14:52 | 48.04166 | 16.61116 | 1607 ft | 127 kts | 345° |
| 2026-04-26 14:52 | 48.05018 | 16.60757 | 1431 ft | 127 kts | 345° |
| 2026-04-26 14:52 | 48.05860 | 16.60401 | 1265 ft | 127 kts | 345° |
| 2026-04-26 14:52 | 48.06708 | 16.60043 | 1075 ft | 127 kts | 346° |
| 2026-04-26 14:53 | 48.07560 | 16.59684 | 884 ft | 127 kts | 346° |
| 2026-04-26 14:53 | 48.08409 | 16.59330 | 735 ft | 126 kts | 346° |
| 2026-04-26 14:53 | 48.09247 | 16.58977 | 620 ft | 119 kts | 345° |
| 2026-04-26 14:53 | 48.09930 | 16.58685 | 611 ft | 83 kts | 345° |
| 2026-04-26 14:54 | 48.10385 | 16.58492 | 612 ft | 58 kts | 345° |
| 2026-04-26 14:54 | 48.10724 | 16.58348 | 615 ft | 44 kts | 344° |
| 2026-04-26 14:54 | 48.10968 | 16.58210 | 615 ft | 26 kts | 319° |
| 2026-04-26 14:54 | 48.11051 | 16.58047 | 613 ft | 19 kts | 296° |
| 2026-04-26 14:55 | 48.11112 | 16.57857 | 617 ft | 21 kts | 296° |
| 2026-04-26 14:55 | 48.11178 | 16.57653 | 621 ft | 22 kts | 294° |
| 2026-04-26 14:55 | 48.11240 | 16.57463 | 612 ft | 19 kts | 296° |
| 2026-04-26 14:55 | 48.11301 | 16.57274 | 617 ft | 21 kts | 295° |
| 2026-04-26 14:56 | 48.11368 | 16.57068 | 612 ft | 23 kts | 297° |
| 2026-04-26 14:56 | 48.11437 | 16.56859 | 618 ft | 23 kts | 296° |
| 2026-04-26 14:56 | 48.11504 | 16.56650 | 620 ft | 19 kts | 296° |
| 2026-04-26 14:56 | 48.11563 | 16.56469 | 618 ft | 17 kts | 294° |
| 2026-04-26 14:57 | 48.11617 | 16.56305 | 617 ft | 19 kts | 297° |
| 2026-04-26 14:57 | 48.11671 | 16.56139 | 612 ft | 18 kts | 296° |
| 2026-04-26 14:57 | 48.11726 | 16.55969 | 617 ft | 18 kts | 299° |
| 2026-04-26 14:57 | 48.11783 | 16.55797 | 612 ft | 19 kts | 296° |
| 2026-04-26 14:58 | 48.11841 | 16.55618 | 617 ft | 19 kts | 295° |
| 2026-04-26 14:58 | 48.11885 | 16.55470 | 612 ft | 13 kts | 297° |
| 2026-04-26 14:58 | 48.11961 | 16.55470 | 614 ft | 12 kts | 26° |
| 2026-04-26 14:58 | 48.12041 | 16.55528 | 609 ft | 13 kts | 25° |
| 2026-04-26 14:59 | 48.12115 | 16.55582 | 620 ft | 11 kts | 26° |
| 2026-04-26 14:59 | 48.12138 | 16.55635 | 609 ft | 6 kts | 101° |
| 2026-04-26 14:59 | 48.12125 | 16.55677 | 622 ft | 3 kts | 116° |
| 2026-04-26 14:59 | 48.12123 | 16.55684 | 622 ft | 0 kts | 116° |
| 2026-04-26 15:47 | 48.12123 | 16.55683 | 610 ft | 0 kts | 116° |